Latest Weather Observations for Adelaide Airport

IDS60801

Issued at 11:31 pm CST Thursday 30 June 2016 (issued every 30 minutes, with the page automatically refreshed every 10 minutes)

About weather observations | Map of weather stations | Latest weather observations for SA | Other Formats
Station Details ID: 023034 Name: ADELAIDE AIRPORT Lat: -34.95 Lon: 138.52 Height: 2.0 m
Data from the previous 72 hours. | See also: Recent months at Adelaide Airport
Date/Time
CST
Temp
°C
App
Temp
°C
Dew
Point
°C
Rel
Hum
%
Delta-T
°C
Wind Press
QNH
hPa
Press
MSL
hPa
Rain since
9am
mm
Dir  Spd
km/h
Gust
km/h
Spd
kts
Gust
kts
30/11:00pm 11.8 6.9 5.3 64 3.0 SW 20 28 11 15 1020.8 1020.8 2.8
30/10:30pm 11.8 5.8 5.5 65 2.9 SW 26 33 14 18 1020.5 1020.5 2.8
30/10:00pm 12.0 5.2 5.0 62 3.2 SW 30 35 16 19 1020.2 1020.2 2.8
30/09:30pm 11.9 6.1 4.6 61 3.3 WSW 24 30 13 16 1020.1 1020.1 2.8
30/09:00pm 11.8 5.5 5.5 65 2.9 SW 28 35 15 19 1019.8 1019.8 2.8
30/08:30pm 12.0 5.1 4.5 60 3.4 SW 30 41 16 22 1019.5 1019.5 2.8
30/08:00pm 11.8 5.0 5.3 64 3.0 SW 30 37 16 20 1019.2 1019.2 2.8
30/07:30pm 12.2 5.2 4.2 58 3.6 SW 30 39 16 21 1018.8 1018.8 2.8
30/07:00pm 12.3 3.8 3.2 54 4.0 SW 37 48 20 26 1018.2 1018.2 2.8
30/06:30pm 12.7 5.2 3.5 53 4.1 SW 32 44 17 24 1017.6 1017.6 2.8
30/06:00pm 12.4 4.0 3.7 55 3.9 SW 37 54 20 29 1017.0 1017.0 2.8
30/05:54pm 12.6 4.5 3.4 53 4.1 WSW 35 54 19 29 1016.9 1016.9 2.8
30/05:30pm 12.3 5.0 4.3 58 3.6 SW 32 41 17 22 1016.5 1016.5 2.8
30/05:00pm 11.7 6.0 6.6 71 2.4 SW 26 32 14 17 1016.3 1016.3 2.8
30/04:38pm 11.1 2.9 8.0 81 1.5 SW 41 54 22 29 1015.9 1015.9 2.8
30/04:30pm 12.8 4.6 4.5 57 3.8 WSW 37 50 20 27 1015.6 1015.6 2.8
30/04:00pm 13.1 5.5 4.0 54 4.1 WSW 33 43 18 23 1015.5 1015.5 2.8
30/03:34pm 13.1 4.5 4.6 56 3.9 WSW 39 57 21 31 1015.2 1015.2 2.8
30/03:30pm 13.2 4.1 4.2 54 4.1 WSW 41 57 22 31 1015.1 1015.1 2.8
30/03:00pm 13.3 4.0 4.9 57 3.9 WSW 43 57 23 31 1014.7 1014.7 2.8
30/02:30pm 13.9 4.0 2.9 47 4.9 WSW 44 57 24 31 1014.3 1014.3 2.8
30/02:00pm 14.0 4.3 3.9 50 4.6 WSW 44 56 24 30 1014.0 1014.0 2.8
30/01:30pm 14.1 4.7 4.3 51 4.5 WSW 43 52 23 28 1013.9 1013.9 2.8
30/01:00pm 13.6 3.5 5.8 59 3.7 WSW 48 59 26 32 1013.9 1013.9 2.8
30/12:30pm 13.7 6.0 7.1 64 3.2 W 37 50 20 27 1013.8 1013.8 2.8
30/12:21pm 13.1 5.0 7.1 67 2.9 W 39 46 21 25 1013.7 1013.7 2.8
30/12:08pm 12.1 4.9 7.8 75 2.1 W 35 56 19 30 1013.8 1013.8 2.8
30/12:00pm 14.1 8.6 9.2 72 2.5 W 28 39 15 21 1013.4 1013.4 2.4
30/11:30am 13.2 7.0 9.9 80 1.7 WSW 33 48 18 26 1013.7 1013.7 2.4
30/11:24am 12.8 7.0 9.5 80 1.7 WSW 30 43 16 23 1013.8 1013.8 2.4
30/11:05am 11.6 4.2 10.0 90 0.8 W 39 61 21 33 1014.0 1014.0 2.2
30/11:00am 12.2 6.0 9.4 83 1.4 WNW 32 61 17 33 1014.1 1014.1 2.0
30/10:59am 12.5 6.3 9.3 81 1.6 WNW 32 61 17 33 1014.1 1014.1 2.0
30/10:30am 13.6 8.4 10.3 80 1.7 WNW 28 35 15 19 1013.7 1013.7 2.0
30/10:00am 13.1 7.1 10.0 81 1.6 WNW 32 43 17 23 1013.7 1013.7 2.0
30/09:30am 12.6 6.0 11.3 92 0.7 NW 37 52 20 28 1013.1 1013.1 2.0
30/09:18am 12.4 5.0 11.3 93 0.6 NNW 41 56 22 30 1012.8 1012.8 1.0
30/09:13am 12.7 5.9 10.8 88 1.0 NNW 37 50 20 27 1012.5 1012.5 0.4
30/09:00am 13.3 6.1 10.6 84 1.4 NNW 39 52 21 28 1012.5 1012.5 1.8
30/08:30am 12.8 5.5 10.3 85 1.3 NNW 39 52 21 28 1012.4 1012.4 1.8
30/08:00am 12.6 6.4 9.9 83 1.4 NNW 33 50 18 27 1012.2 1012.2 1.8
30/07:30am 12.2 7.6 9.6 84 1.3 NNW 24 37 13 20 1012.2 1012.2 1.8
30/07:00am 11.4 6.7 9.4 87 1.0 N 24 32 13 17 1011.9 1011.9 1.8
30/06:30am 10.7 5.7 9.5 92 0.6 N 26 35 14 19 1011.5 1011.5 1.8
30/06:21am 10.9 6.2 9.1 89 0.9 N 24 33 13 18 1011.6 1011.6 1.0
30/06:00am 11.0 5.3 8.3 83 1.3 N 28 37 15 20 1011.4 1011.4 0.4
30/05:30am 11.0 6.1 8.6 85 1.2 N 24 35 13 19 1011.5 1011.5 0.4
30/05:00am 11.5 6.2 8.5 82 1.5 N 26 35 14 19 1011.5 1011.5 0.4
30/04:30am 11.5 5.4 8.2 80 1.6 N 30 39 16 21 1011.8 1011.8 0.4
30/04:00am 11.1 4.8 7.6 79 1.7 N 30 48 16 26 1012.1 1012.1 0.4
30/03:30am 11.1 5.2 7.3 77 1.8 N 28 41 15 22 1012.4 1012.4 0.4
30/03:00am 11.1 5.2 7.6 79 1.7 N 28 39 15 21 1012.6 1012.6 0.2
30/02:30am 11.2 5.9 6.8 74 2.1 N 24 33 13 18 1012.7 1012.7 0.0
30/02:00am 11.4 5.6 6.3 71 2.4 N 26 35 14 19 1013.1 1013.1 0.0
30/01:30am 11.5 4.5 5.9 68 2.6 N 32 44 17 24 1013.5 1013.5 0.0
30/01:00am 11.9 4.5 4.9 62 3.2 N 33 44 18 24 1013.6 1013.6 0.0
30/12:35am 11.9 4.6 4.4 60 3.4 N 32 50 17 27 1013.8 1013.8 0.0
30/12:30am 11.9 4.4 4.4 60 3.4 N 33 50 18 27 1013.9 1013.9 0.0
30/12:00am 12.2 4.7 4.2 58 3.6 N 33 46 18 25 1014.4 1014.4 0.0
 
Date/Time
CST
Temp
°C
App
Temp
°C
Dew
Point
°C
Rel
Hum
%
Delta-T
°C
Wind Press
QNH
hPa
Press
MSL
hPa
Rain since
9am
mm
Dir  Spd
km/h
Gust
km/h
Spd
kts
Gust
kts
29/11:30pm 12.1 4.5 4.1 58 3.6 N 33 46 18 25 1014.8 1014.8 0.0
29/11:00pm 11.9 4.9 4.1 59 3.5 N 30 44 16 24 1015.0 1015.0 0.0
29/10:30pm 11.6 4.3 4.5 61 3.2 N 32 50 17 27 1015.0 1015.0 0.0
29/10:00pm 11.2 4.3 4.5 63 3.0 N 30 37 16 20 1015.5 1015.5 0.0
29/09:30pm 11.1 4.6 4.9 65 2.8 N 28 37 15 20 1015.7 1015.7 0.0
29/09:00pm 11.0 4.6 5.1 67 2.7 N 28 33 15 18 1016.2 1016.2 0.0
29/08:30pm 11.4 4.9 4.8 64 3.0 N 28 37 15 20 1016.4 1016.4 0.0
29/08:00pm 11.1 4.6 4.7 64 2.9 N 28 37 15 20 1016.4 1016.4 0.0
29/07:30pm 11.2 5.4 4.3 62 3.1 NNE 24 33 13 18 1016.7 1016.7 0.0
29/07:00pm 11.3 4.7 4.1 61 3.2 NNE 28 35 15 19 1016.8 1016.8 0.0
29/06:30pm 11.4 4.8 4.3 61 3.2 N 28 35 15 19 1017.0 1017.0 0.0
29/06:00pm 11.6 5.4 4.2 60 3.3 N 26 35 14 19 1017.4 1017.4 0.0
29/05:30pm 12.1 5.4 3.5 55 3.8 N 28 35 15 19 1017.4 1017.4 0.0
29/05:17pm 12.3 5.2 3.5 55 3.9 N 30 48 16 26 1017.5 1017.5 0.0
29/05:00pm 12.6 4.6 3.6 54 4.0 N 35 48 19 26 1017.5 1017.5 0.0
29/04:46pm 12.8 4.7 3.4 53 4.2 N 35 54 19 29 1017.6 1017.6 0.0
29/04:30pm 12.8 5.2 3.9 54 4.0 N 33 39 18 21 1017.6 1017.6 0.0
29/04:00pm 13.0 4.6 3.9 54 4.1 N 37 54 20 29 1018.2 1018.2 0.0
29/03:42pm 13.0 3.4 3.6 53 4.2 N 43 61 23 33 1018.2 1018.2 0.0
29/03:30pm 13.0 3.9 3.9 54 4.1 N 41 54 22 29 1018.2 1018.2 0.0
29/03:00pm 13.1 4.1 4.3 55 4.0 N 41 56 22 30 1018.6 1018.6 0.0
29/02:30pm 13.6 4.6 4.7 55 4.1 N 41 56 22 30 1018.9 1018.9 0.0
29/02:00pm 12.7 4.5 4.8 58 3.6 N 37 50 20 27 1019.4 1019.4 0.0
29/01:30pm 12.4 5.2 5.0 60 3.4 N 32 41 17 22 1019.9 1019.9 0.0
29/01:00pm 12.1 5.4 5.4 63 3.1 N 30 37 16 20 1020.6 1020.6 0.0
29/12:30pm 11.9 6.0 5.6 65 2.9 N 26 35 14 19 1021.5 1021.5 0.0
29/12:00pm 11.7 5.8 5.6 66 2.8 N 26 35 14 19 1022.1 1022.1 0.0
29/11:30am 11.6 5.6 5.5 66 2.8 N 26 35 14 19 1023.0 1023.0 0.0
29/11:00am 11.5 5.9 5.4 66 2.8 N 24 32 13 17 1023.4 1023.4 0.0
29/10:30am 11.4 5.0 5.3 66 2.8 N 28 37 15 20 1023.9 1023.9 0.0
29/10:00am 11.2 4.8 5.0 65 2.8 N 28 33 15 18 1024.4 1024.4 0.0
29/09:30am 10.9 4.8 4.9 66 2.7 N 26 33 14 18 1024.5 1024.5 0.0
29/09:00am 10.8 5.1 4.8 66 2.7 N 24 32 13 17 1024.7 1024.7 0.0
29/08:30am 10.8 5.0 4.5 65 2.8 N 24 30 13 16 1024.6 1024.6 0.0
29/08:00am 10.5 5.6 4.9 68 2.5 N 20 30 11 16 1024.8 1024.8 0.0
29/07:30am 10.4 5.4 4.8 68 2.5 N 20 26 11 14 1024.7 1024.7 0.0
29/07:00am 10.3 4.9 4.4 67 2.6 N 22 30 12 16 1024.6 1024.6 0.0
29/06:30am 10.0 5.1 4.1 67 2.6 NNE 19 22 10 12 1024.4 1024.4 0.0
29/06:00am 9.2 4.6 3.9 69 2.3 NNE 17 20 9 11 1024.5 1024.5 0.0
29/05:30am 9.0 4.0 3.7 69 2.3 NE 19 22 10 12 1024.5 1024.5 0.0
29/05:00am 9.0 4.4 3.9 70 2.2 NE 17 19 9 10 1024.6 1024.6 0.0
29/04:30am 8.2 3.6 3.5 72 2.0 NNE 17 20 9 11 1024.7 1024.7 0.0
29/04:00am 8.6 4.0 3.5 70 2.2 NE 17 17 9 9 1024.6 1024.6 0.0
29/03:30am 8.5 4.3 3.6 71 2.1 NE 15 17 8 9 1024.6 1024.6 0.0
29/03:00am 8.3 4.1 3.6 72 2.0 NE 15 17 8 9 1024.7 1024.7 0.0
29/02:30am 8.5 4.2 3.3 70 2.2 NE 15 17 8 9 1024.9 1024.9 0.0
29/02:00am 7.9 3.6 3.4 73 1.9 NNE 15 19 8 10 1025.1 1025.1 0.0
29/01:30am 6.6 2.8 3.8 82 1.2 NE 13 13 7 7 1025.1 1025.1 0.0
29/01:00am 6.7 2.9 4.1 83 1.1 NE 13 15 7 8 1025.4 1025.4 0.0
29/12:30am 7.9 4.6 4.7 80 1.4 NNE 11 13 6 7 1025.6 1025.6 0.0
29/12:00am 8.4 5.2 5.3 81 1.4 NNE 11 13 6 7 1025.9 1025.9 0.0
 
Date/Time
CST
Temp
°C
App
Temp
°C
Dew
Point
°C
Rel
Hum
%
Delta-T
°C
Wind Press
QNH
hPa
Press
MSL
hPa
Rain since
9am
mm
Dir  Spd
km/h
Gust
km/h
Spd
kts
Gust
kts
28/11:30pm 8.8 5.3 5.5 80 1.5 NE 13 15 7 8 1026.0 1026.0 0.0
28/11:00pm 8.1 4.6 5.4 83 1.2 NE 13 15 7 8 1026.0 1026.0 0.0
28/10:30pm 9.4 5.2 5.6 77 1.7 NE 17 20 9 11 1026.0 1026.0 0.0
28/10:00pm 9.9 6.6 6.2 78 1.7 NNE 13 15 7 8 1026.3 1026.3 0.0
28/09:30pm 9.9 6.3 6.7 80 1.5 NNE 15 17 8 9 1026.4 1026.4 0.0
28/09:00pm 10.2 7.0 7.0 80 1.5 NE 13 15 7 8 1026.3 1026.3 0.0
28/08:30pm 10.7 7.6 7.1 78 1.7 NE 13 17 7 9 1026.4 1026.4 0.0
28/08:00pm 10.7 7.6 7.1 78 1.7 NE 13 15 7 8 1026.4 1026.4 0.0
28/07:30pm 10.5 7.4 7.3 80 1.5 NE 13 15 7 8 1026.3 1026.3 0.0
28/07:00pm 10.0 7.6 6.8 80 1.5 NE 9 11 5 6 1026.4 1026.4 0.0
28/06:30pm 11.3 8.6 7.5 77 1.8 NNE 11 13 6 7 1026.2 1026.2 0.0
28/06:00pm 12.2 9.6 7.7 74 2.2 N 11 13 6 7 1026.0 1026.0 0.0
28/05:30pm 13.0 10.4 7.7 70 2.6 N 11 15 6 8 1026.0 1026.0 0.0
28/05:00pm 13.6 10.2 7.7 67 2.9 N 15 22 8 12 1025.9 1025.9 0.0
28/04:30pm 14.6 10.3 7.2 61 3.6 NNW 19 26 10 14 1025.9 1025.9 0.0
28/04:00pm 15.1 10.8 7.8 61 3.6 NNW 20 28 11 15 1025.9 1025.9 0.0
28/03:30pm 15.0 10.4 8.0 63 3.5 NNW 22 30 12 16 1025.8 1025.8 0.0
28/03:00pm 15.2 10.7 8.4 64 3.4 NNW 22 30 12 16 1025.8 1025.8 0.0
28/02:30pm 15.1 11.1 9.2 68 3.0 NNW 20 26 11 14 1026.0 1026.0 0.0
28/02:00pm 14.7 10.0 9.4 70 2.7 NNW 24 30 13 16 1026.1 1026.1 0.0
28/01:30pm 14.7 10.1 9.6 71 2.6 NNW 24 32 13 17 1026.4 1026.4 0.0
28/01:00pm 14.3 10.3 8.9 70 2.7 NNW 20 28 11 15 1026.6 1026.6 0.0
28/12:30pm 14.6 10.2 8.9 68 2.9 NNW 22 30 12 16 1026.7 1026.7 0.0
28/12:00pm 14.2 9.0 8.8 70 2.7 NNW 26 33 14 18 1027.2 1027.2 0.0
28/11:30am 14.1 10.2 8.7 70 2.7 N 19 26 10 14 1027.4 1027.4 0.0
28/11:00am 13.7 10.1 8.2 69 2.7 N 17 24 9 13 1027.6 1027.6 0.0
28/10:30am 12.4 8.6 7.6 72 2.3 NNE 17 20 9 11 1027.8 1027.8 0.0
28/10:00am 11.4 7.5 7.0 74 2.1 NNE 17 20 9 11 1027.7 1027.7 0.0
28/09:30am 10.5 6.5 6.6 77 1.8 NNE 17 22 9 12 1027.4 1027.4 0.0
28/09:00am 9.7 5.2 6.2 79 1.6 NNE 19 24 10 13 1027.1 1027.1 0.0
28/08:30am 8.6 4.8 5.7 82 1.3 NE 15 19 8 10 1026.9 1026.9 0.0
28/08:00am 7.8 4.0 5.8 87 0.9 NE 15 20 8 11 1026.6 1026.6 0.0
28/07:30am 7.9 4.2 6.1 88 0.8 NE 15 17 8 9 1026.3 1026.3 0.0
28/07:00am 7.8 4.5 6.3 90 0.7 NE 13 19 7 10 1025.9 1025.9 0.0
28/06:30am 8.3 5.0 6.6 89 0.8 NNE 13 17 7 9 1025.5 1025.5 0.0
28/06:00am 8.6 4.7 6.9 89 0.8 NNE 17 20 9 11 1025.1 1025.1 0.0
28/05:30am 8.4 4.4 6.7 89 0.8 NNE 17 20 9 11 1025.0 1025.0 0.0
28/05:00am 8.5 4.9 6.8 89 0.8 NNE 15 17 8 9 1024.8 1024.8 0.0
28/04:30am 8.7 5.1 6.8 88 0.9 NNE 15 20 8 11 1024.6 1024.6 0.0
28/04:00am 8.7 4.7 6.8 88 0.9 NNE 17 19 9 10 1024.5 1024.5 0.0
28/03:30am 8.9 5.3 6.7 86 1.0 NE 15 17 8 9 1024.7 1024.7 0.0
28/03:20am 8.9 5.3 6.7 86 1.0 NE 15 17 8 9 1024.6 1024.6 0.0
28/03:00am 9.1 5.6 7.2 88 0.9 NE 15 20 8 11 1024.7 1024.7 0.0
28/02:30am 9.0 5.0 6.8 86 1.0 NE 17 22 9 12 1024.7 1024.7 0.0
28/02:00am 9.0 5.9 7.1 88 0.9 NE 13 17 7 9 1024.7 1024.7 0.0
28/01:30am 9.1 5.6 7.2 88 0.9 NNE 15 17 8 9 1024.6 1024.6 0.0
28/01:00am 9.1 5.6 7.2 88 0.9 NE 15 17 8 9 1024.6 1024.6 0.0
28/12:30am 9.2 5.4 7.5 89 0.8 NE 17 22 9 12 1024.5 1024.5 0.0
28/12:00am 9.6 6.6 7.9 89 0.8 NE 13 15 7 8 1024.6 1024.6 0.0

Other Formats:

Comma delimited format used in spreadsheet applications
http://www.bom.gov.au/fwo/IDS60801/IDS60801.94672.axf

JavaScript Object Notation format (JSON) in row-major order
http://www.bom.gov.au/fwo/IDS60801/IDS60801.94672.json